Overview Statistics Trail Chart Weather Telemetry Raw packets
 

This is the latest recevied weather packets stored in our database for station/object SV7GBF-2. If no packets are shown the sender has not sent any weather packets the latest 10 day(s).

<< 5 6 7 8 9 10 11 >>
Time Temp. Humidity Pressure Rain* Wind** Luminosity Snow
1788548045 25° C 15% 1016 hPa - - - -
1788547445 25.56° C 15% 1016 hPa - - - -
1788546845 26.11° C 12% 1016 hPa - - - -
1788546246 26.11° C 15% 1016 hPa - - - -
1788545646 26.11° C 15% 1016 hPa - - - -
1788545045 26.11° C 17% 1016 hPa - - - -
1788544445 26.11° C 17% 1016 hPa - - - -
1788543846 27.22° C 14% 1016 hPa - - - -
1788543245 27.78° C 11% 1016 hPa - - - -
1788542645 28.33° C 11% 1016 hPa - - - -
1788542046 28.89° C 11% 1015 hPa - - - -
1788541445 28.89° C 11% 1015 hPa - - - -
1788540845 28.89° C 11% 1015 hPa - - - -
1788540246 30° C 8% 1015 hPa - - - -
1788539645 30° C 8% 1015 hPa - - - -
1788538446 30.56° C 8% 1015 hPa - - - -
1788537846 31.11° C 8% 1015 hPa - - - -
1788537245 31.11° C 8% 1015 hPa - - - -
1788534846 32.22° C 7% 1015 hPa - - - -
1788533647 32.22° C 7% 1015 hPa - - - -
1788533046 32.22° C 7% 1015 hPa - - - -
1788531247 32.22° C 10% 1015 hPa - - - -
1788530645 33.33° C 9% 1015 hPa - - - -
1788530045 32.78° C 10% 1015 hPa - - - -
1788529446 32.22° C 10% 1015 hPa - - - -

* Rain since midnight (hover to see other rain measurements)
** Current wind speed in m/s (hover to see current wind gust speed)